createdAt,value
2022-11-29T00:01:50.133Z,53.20
2022-11-29T00:04:19.363Z,52.38
2022-11-29T00:06:48.754Z,51.28
2022-11-29T00:09:19.164Z,49.30
2022-11-29T00:12:06.883Z,49.77
2022-11-29T00:14:36.121Z,48.65
2022-11-29T00:17:06.106Z,49.15
2022-11-29T00:19:37.254Z,49.25
2022-11-29T00:22:06.663Z,48.65
2022-11-29T00:24:36.756Z,50.28
2022-11-29T00:27:06.147Z,49.83
2022-11-29T00:29:35.766Z,48.23
2022-11-29T00:32:05.377Z,44.93
2022-11-29T00:34:34.753Z,38.63
2022-11-29T00:37:04.017Z,38.98
2022-11-29T00:39:33.221Z,41.58
2022-11-29T00:42:02.636Z,43.35
2022-11-29T00:44:31.904Z,47.40
2022-11-29T00:47:01.154Z,48.85
2022-11-29T00:49:30.370Z,49.20
2022-11-29T00:51:59.845Z,47.60
2022-11-29T00:54:29.120Z,48.10
2022-11-29T00:56:58.422Z,48.63
2022-11-29T00:59:27.703Z,47.58
2022-11-29T01:01:57.448Z,48.35
2022-11-29T01:04:26.691Z,45.03
2022-11-29T01:06:56.131Z,47.00
2022-11-29T01:09:25.331Z,48.38
2022-11-29T01:11:54.805Z,48.28
2022-11-29T01:14:24.015Z,48.33
2022-11-29T01:16:53.291Z,45.65
2022-11-29T01:19:22.492Z,46.73
2022-11-29T01:21:51.758Z,44.67
2022-11-29T01:24:22.230Z,45.40
2022-11-29T01:26:51.686Z,43.55
2022-11-29T01:29:20.887Z,47.27
2022-11-29T01:31:50.207Z,46.55
2022-11-29T01:34:19.449Z,47.93
2022-11-29T01:36:48.714Z,49.50
2022-11-29T01:39:17.913Z,47.60
2022-11-29T01:41:47.294Z,47.38
2022-11-29T01:44:19.712Z,45.20
2022-11-29T01:46:49.785Z,44.60
2022-11-29T01:49:22.102Z,42.95
2022-11-29T01:52:06.845Z,42.10
2022-11-29T01:54:39.338Z,41.63
2022-11-29T01:57:10.183Z,40.70
2022-11-29T01:59:44.864Z,43.38
2022-11-29T02:02:17.553Z,44.27
2022-11-29T02:04:47.753Z,45.50
2022-11-29T02:07:17.645Z,47.35
2022-11-29T02:09:46.905Z,48.02
2022-11-29T02:12:34.624Z,48.78
2022-11-29T02:15:31.275Z,50.58
2022-11-29T02:18:14.901Z,51.53
2022-11-29T02:21:05.388Z,48.23
2022-11-29T02:23:50.033Z,50.12
2022-11-29T02:26:28.356Z,50.30
2022-11-29T02:29:29.711Z,49.50
2022-11-29T02:32:08.038Z,47.25
2022-11-29T02:34:49.413Z,52.90
2022-11-29T02:37:40.339Z,51.35
2022-11-29T02:40:41.835Z,50.28
2022-11-29T02:43:19.875Z,51.65
2022-11-29T02:46:04.358Z,49.98
2022-11-29T02:48:54.931Z,51.15
2022-11-29T02:51:30.346Z,54.70
2022-11-29T02:54:22.707Z,54.60
2022-11-29T02:57:10.141Z,49.27
2022-11-29T02:59:54.394Z,55.55
2022-11-29T03:02:35.150Z,51.02
2022-11-29T03:05:19.183Z,50.70
2022-11-29T03:07:51.864Z,49.33
2022-11-29T03:10:33.552Z,62.15
2022-11-29T03:13:04.914Z,49.75
2022-11-29T03:15:37.576Z,50.10
2022-11-29T03:18:30.982Z,48.58
2022-11-29T03:21:20.256Z,54.95
2022-11-29T03:23:55.692Z,55.35
2022-11-29T03:26:52.479Z,46.18
2022-11-29T03:29:45.960Z,50.52
2022-11-29T03:32:21.056Z,50.88
2022-11-29T03:34:57.554Z,45.40
2022-11-29T03:37:48.125Z,47.33
2022-11-29T03:40:23.197Z,46.37
2022-11-29T03:42:55.720Z,48.02
2022-11-29T03:48:10.345Z,46.48
2022-11-29T03:50:42.772Z,49.58
2022-11-29T03:53:17.980Z,55.58
2022-11-29T03:55:53.681Z,54.42
2022-11-29T03:58:34.857Z,51.15
2022-11-29T04:01:22.658Z,53.30
2022-11-29T04:04:13.614Z,58.78
2022-11-29T04:06:48.730Z,56.75
2022-11-29T04:09:23.871Z,59.45
2022-11-29T04:12:29.701Z,57.30
2022-11-29T04:15:17.306Z,54.58
2022-11-29T04:18:01.846Z,56.83
2022-11-29T04:20:52.427Z,52.50
2022-11-29T04:23:42.882Z,52.17
2022-11-29T04:26:35.075Z,51.30
2022-11-29T04:29:18.195Z,49.42
2022-11-29T04:31:56.219Z,49.88
2022-11-29T04:35:01.955Z,51.08
2022-11-29T04:37:34.403Z,51.05
2022-11-29T04:40:18.714Z,49.90
2022-11-29T04:43:11.003Z,48.83
2022-11-29T04:46:01.673Z,51.13
2022-11-29T04:48:52.139Z,52.17
2022-11-29T04:51:39.683Z,51.23
2022-11-29T04:54:12.157Z,50.00
2022-11-29T04:56:47.747Z,51.00
2022-11-29T04:59:29.280Z,50.65
2022-11-29T05:02:16.568Z,47.80
2022-11-29T05:04:57.645Z,48.40
2022-11-29T05:07:39.036Z,50.65
2022-11-29T05:10:22.930Z,48.83
2022-11-29T05:12:55.535Z,51.48
2022-11-29T05:18:07.380Z,54.25
2022-11-29T05:20:48.887Z,52.55
2022-11-29T05:23:27.354Z,47.88
2022-11-29T05:26:08.317Z,46.90
2022-11-29T05:28:50.452Z,44.98
2022-11-29T05:31:44.303Z,47.60
2022-11-29T05:34:36.402Z,47.35
2022-11-29T05:37:24.102Z,42.67
2022-11-29T05:40:08.031Z,42.05
2022-11-29T05:43:00.040Z,40.90
2022-11-29T05:45:50.959Z,40.57
2022-11-29T05:48:32.311Z,41.13
2022-11-29T05:51:21.233Z,40.65
2022-11-29T05:54:11.896Z,41.18
2022-11-29T05:57:09.591Z,41.68
2022-11-29T05:59:39.918Z,41.20
2022-11-29T06:02:30.348Z,40.30
2022-11-29T06:05:08.584Z,41.50
2022-11-29T06:07:48.516Z,40.95
2022-11-29T06:10:22.812Z,40.20
2022-11-29T06:13:24.085Z,41.10
2022-11-29T06:16:05.111Z,40.17
2022-11-29T06:19:00.613Z,41.33
2022-11-29T06:21:42.933Z,42.43
2022-11-29T06:24:30.649Z,42.30
2022-11-29T06:27:11.430Z,41.65
2022-11-29T06:29:44.099Z,42.03
2022-11-29T06:32:50.534Z,43.65
2022-11-29T06:35:35.140Z,42.55
2022-11-29T06:38:13.740Z,43.87
2022-11-29T06:40:43.514Z,46.30
2022-11-29T06:43:13.094Z,47.17
2022-11-29T06:45:45.510Z,43.75
2022-11-29T06:48:17.635Z,47.62
2022-11-29T06:50:59.112Z,49.05
2022-11-29T06:53:40.244Z,45.73
2022-11-29T06:56:27.949Z,45.45
2022-11-29T06:59:20.207Z,43.17
2022-11-29T07:01:55.414Z,47.70
2022-11-29T07:04:45.690Z,46.15
2022-11-29T07:07:17.871Z,48.05
2022-11-29T07:09:51.838Z,49.27
2022-11-29T07:12:21.533Z,48.92
2022-11-29T07:14:51.134Z,48.73
2022-11-29T07:17:26.611Z,52.33
2022-11-29T07:20:08.797Z,50.33
2022-11-29T07:22:53.049Z,48.70
2022-11-29T07:25:57.130Z,48.35
2022-11-29T07:28:38.767Z,54.38
2022-11-29T07:31:11.217Z,50.98
2022-11-29T07:33:46.921Z,51.73
2022-11-29T07:36:28.506Z,52.43
2022-11-29T07:39:36.221Z,55.25
2022-11-29T07:42:11.402Z,56.70
2022-11-29T07:44:47.328Z,53.28
2022-11-29T07:47:16.702Z,55.83
2022-11-29T07:49:46.107Z,54.45
2022-11-29T07:52:16.511Z,53.20
2022-11-29T07:54:46.244Z,50.08
2022-11-29T07:57:15.795Z,56.15
2022-11-29T07:59:45.557Z,57.40
2022-11-29T08:02:15.303Z,57.43
2022-11-29T08:04:45.160Z,55.90
2022-11-29T08:07:14.896Z,55.23
2022-11-29T08:09:44.497Z,54.95
2022-11-29T08:12:13.972Z,53.55
2022-11-29T08:14:43.807Z,54.33
2022-11-29T08:17:13.591Z,56.73
2022-11-29T08:19:42.883Z,54.93
2022-11-29T08:22:13.346Z,55.05
2022-11-29T08:24:43.165Z,55.10
2022-11-29T08:27:12.679Z,56.63
2022-11-29T08:29:42.104Z,56.15
2022-11-29T08:32:11.332Z,55.23
2022-11-29T08:34:40.565Z,54.45
2022-11-29T08:37:09.987Z,56.30
2022-11-29T08:39:39.373Z,53.30
2022-11-29T08:42:09.246Z,61.25
2022-11-29T08:44:38.624Z,55.52
2022-11-29T08:47:25.752Z,54.53
2022-11-29T08:50:03.721Z,57.30
2022-11-29T08:52:54.007Z,56.90
2022-11-29T08:55:26.287Z,56.13
2022-11-29T08:57:58.051Z,55.25
2022-11-29T09:00:27.325Z,51.13
2022-11-29T09:02:58.236Z,50.90
2022-11-29T09:05:27.634Z,50.12
2022-11-29T09:07:56.926Z,46.85
2022-11-29T09:10:26.573Z,43.35
2022-11-29T09:12:56.493Z,40.60
2022-11-29T09:15:25.822Z,42.67
2022-11-29T09:17:55.045Z,40.50
2022-11-29T09:20:25.391Z,36.30
2022-11-29T09:22:54.661Z,41.70
2022-11-29T09:25:23.919Z,38.53
2022-11-29T09:27:53.155Z,30.65
2022-11-29T09:30:23.919Z,26.15
2022-11-29T09:32:53.352Z,26.68
2022-11-29T09:35:22.602Z,23.62
2022-11-29T09:37:51.961Z,22.77
2022-11-29T09:40:24.144Z,24.60
2022-11-29T09:43:05.591Z,25.55
2022-11-29T09:45:40.500Z,25.90
2022-11-29T09:48:28.310Z,23.55
2022-11-29T09:51:03.831Z,23.45
2022-11-29T09:53:45.138Z,26.33
2022-11-29T09:56:26.631Z,26.30
2022-11-29T09:59:06.032Z,27.80
2022-11-29T10:01:47.571Z,27.45
2022-11-29T10:04:25.993Z,28.30
2022-11-29T10:07:01.531Z,30.00
2022-11-29T10:09:39.235Z,28.23
2022-11-29T10:12:17.535Z,28.92
2022-11-29T10:14:53.976Z,27.58
2022-11-29T10:17:38.726Z,29.87
2022-11-29T10:20:11.543Z,29.50
2022-11-29T10:23:01.968Z,33.80
2022-11-29T10:25:50.292Z,36.13
2022-11-29T10:28:25.988Z,31.68
2022-11-29T10:30:56.630Z,26.25
2022-11-29T10:33:33.881Z,28.47
2022-11-29T10:36:05.711Z,29.32
2022-11-29T10:38:34.941Z,31.57
2022-11-29T10:41:09.654Z,31.97
2022-11-29T10:43:39.377Z,29.65
2022-11-29T10:46:23.776Z,29.72
2022-11-29T10:48:54.275Z,28.02
2022-11-29T10:51:23.663Z,30.08
2022-11-29T10:53:56.069Z,28.12
2022-11-29T10:56:31.198Z,26.12
2022-11-29T10:59:07.233Z,26.00
2022-11-29T11:01:44.010Z,25.00
2022-11-29T11:04:34.283Z,28.17
2022-11-29T11:07:05.406Z,28.45
2022-11-29T11:09:41.563Z,27.22
2022-11-29T11:12:19.953Z,24.10
2022-11-29T11:14:51.441Z,24.20
2022-11-29T11:17:27.575Z,24.72
2022-11-29T11:20:00.749Z,26.45
2022-11-29T11:22:32.663Z,27.17
2022-11-29T11:25:06.926Z,27.82
2022-11-29T11:27:41.616Z,28.05
2022-11-29T11:30:25.160Z,27.07
2022-11-29T11:33:17.253Z,33.65
2022-11-29T11:35:48.092Z,29.27
2022-11-29T11:38:18.440Z,28.02
2022-11-29T11:40:47.642Z,25.97
2022-11-29T11:43:21.734Z,27.70
2022-11-29T11:45:54.698Z,28.52
2022-11-29T11:48:24.353Z,27.95
2022-11-29T11:50:58.991Z,24.43
2022-11-29T11:53:30.950Z,26.77
2022-11-29T11:56:02.381Z,26.12
2022-11-29T11:58:33.915Z,22.75
2022-11-29T12:01:15.612Z,23.25
2022-11-29T12:04:03.036Z,24.47
2022-11-29T12:06:53.713Z,25.20
2022-11-29T12:09:37.498Z,24.63
2022-11-29T12:12:27.330Z,23.18
2022-11-29T12:15:01.570Z,24.12
2022-11-29T12:17:39.138Z,24.43
2022-11-29T12:20:17.694Z,27.17
2022-11-29T12:23:11.412Z,24.60
2022-11-29T12:25:58.901Z,25.70
2022-11-29T12:28:33.663Z,27.05
2022-11-29T12:31:21.112Z,29.75
2022-11-29T12:34:26.555Z,29.42
2022-11-29T12:37:02.534Z,27.13
2022-11-29T12:39:35.168Z,30.25
2022-11-29T12:45:11.920Z,30.08
2022-11-29T12:47:53.520Z,29.55
2022-11-29T12:50:43.330Z,31.12
2022-11-29T12:53:31.146Z,30.60
2022-11-29T12:56:11.048Z,29.52
2022-11-29T12:58:55.151Z,28.73
2022-11-29T13:01:39.553Z,30.85
2022-11-29T13:04:30.274Z,34.20
2022-11-29T13:07:11.087Z,34.03
2022-11-29T13:09:49.397Z,32.75
2022-11-29T13:12:40.031Z,34.10
2022-11-29T13:15:17.669Z,33.45
2022-11-29T13:18:08.500Z,32.70
2022-11-29T13:20:46.902Z,31.30
2022-11-29T13:23:46.028Z,31.10
2022-11-29T13:26:07.468Z,30.72
2022-11-29T13:28:41.359Z,31.20
2022-11-29T13:31:14.052Z,32.58
2022-11-29T13:34:03.046Z,33.13
2022-11-29T13:37:07.437Z,31.62
2022-11-29T13:39:42.695Z,30.23
2022-11-29T13:42:24.243Z,30.27
2022-11-29T13:45:05.826Z,31.02
2022-11-29T13:47:38.187Z,30.15
2022-11-29T13:50:09.882Z,29.92
2022-11-29T13:52:48.831Z,30.23
2022-11-29T13:55:24.688Z,30.48
2022-11-29T13:58:16.881Z,29.25
2022-11-29T14:00:40.067Z,29.90
2022-11-29T14:03:27.820Z,29.35
2022-11-29T14:06:05.626Z,28.67
2022-11-29T14:09:18.930Z,28.70
2022-11-29T14:11:52.022Z,29.30
2022-11-29T14:14:30.155Z,28.73
2022-11-29T14:17:02.676Z,27.25
2022-11-29T14:19:34.574Z,28.65
2022-11-29T14:22:18.396Z,28.27
2022-11-29T14:24:59.845Z,29.20
2022-11-29T14:27:35.263Z,26.97
2022-11-29T14:30:05.129Z,25.70
2022-11-29T14:32:56.297Z,26.40
2022-11-29T14:35:28.738Z,26.68
2022-11-29T14:38:06.243Z,25.80
2022-11-29T14:40:44.792Z,26.93
2022-11-29T14:43:29.230Z,27.80
2022-11-29T14:46:10.086Z,29.35
2022-11-29T14:48:39.492Z,28.10
2022-11-29T14:51:20.033Z,28.55
2022-11-29T14:53:52.122Z,33.15
2022-11-29T14:56:35.103Z,33.73
2022-11-29T14:59:42.681Z,30.68
2022-11-29T15:02:43.272Z,27.60
2022-11-29T15:05:34.658Z,26.80
2022-11-29T15:08:23.868Z,26.48
2022-11-29T15:11:02.146Z,26.50
2022-11-29T15:13:34.351Z,25.75
2022-11-29T15:16:23.317Z,26.10
2022-11-29T15:18:55.717Z,26.20
2022-11-29T15:21:40.142Z,30.12
2022-11-29T15:24:14.677Z,28.35
2022-11-29T15:27:04.293Z,28.73
2022-11-29T15:29:33.577Z,39.42
2022-11-29T15:32:05.146Z,32.60
2022-11-29T15:34:40.050Z,31.97
2022-11-29T15:37:13.796Z,33.30
2022-11-29T15:39:43.042Z,33.58
2022-11-29T15:42:14.392Z,32.00
2022-11-29T15:44:48.198Z,34.23
2022-11-29T15:47:23.857Z,37.33
2022-11-29T15:49:54.431Z,35.05
2022-11-29T15:52:26.133Z,35.25
2022-11-29T15:54:58.532Z,35.87
2022-11-29T15:57:39.774Z,37.65
2022-11-29T16:00:19.631Z,39.33
2022-11-29T16:02:54.736Z,40.98
2022-11-29T16:05:36.190Z,39.65
2022-11-29T16:08:08.579Z,44.38
2022-11-29T16:10:43.743Z,45.25
2022-11-29T16:13:39.068Z,46.70
2022-11-29T16:16:22.172Z,43.73
2022-11-29T16:18:52.037Z,43.63
2022-11-29T16:21:32.366Z,40.45
2022-11-29T16:24:13.933Z,42.27
2022-11-29T16:26:44.906Z,41.35
2022-11-29T16:29:28.144Z,43.45
2022-11-29T16:31:57.715Z,41.75
2022-11-29T16:34:32.795Z,40.00
2022-11-29T16:37:05.322Z,40.30
2022-11-29T16:39:36.853Z,41.23
2022-11-29T16:42:25.568Z,41.33
2022-11-29T16:45:18.568Z,42.70
2022-11-29T16:47:54.709Z,40.40
2022-11-29T16:50:24.199Z,42.35
2022-11-29T16:52:56.812Z,40.15
2022-11-29T16:55:24.604Z,39.60
2022-11-29T16:57:54.152Z,41.48
2022-11-29T17:00:33.949Z,39.88
2022-11-29T17:03:03.393Z,39.05
2022-11-29T17:05:32.693Z,40.00
2022-11-29T17:08:02.230Z,38.28
2022-11-29T17:10:32.694Z,37.60
2022-11-29T17:13:03.772Z,38.85
2022-11-29T17:15:33.313Z,39.92
2022-11-29T17:18:02.690Z,38.83
2022-11-29T17:20:32.052Z,40.03
2022-11-29T17:23:01.281Z,40.17
2022-11-29T17:25:30.671Z,39.20
2022-11-29T17:27:59.979Z,41.40
2022-11-29T17:30:30.118Z,45.88
2022-11-29T17:32:59.467Z,46.92
2022-11-29T17:35:28.686Z,54.77
2022-11-29T17:37:59.841Z,48.35
2022-11-29T17:40:29.090Z,50.17
2022-11-29T17:42:58.553Z,47.73
2022-11-29T17:45:27.960Z,52.17
2022-11-29T17:47:59.048Z,46.58
2022-11-29T17:50:28.354Z,44.45
2022-11-29T17:52:57.585Z,43.05
2022-11-29T17:55:29.544Z,43.30
2022-11-29T17:57:57.899Z,41.35
2022-11-29T18:00:27.192Z,40.80
2022-11-29T18:02:56.426Z,52.40
2022-11-29T18:05:28.981Z,47.98
2022-11-29T18:07:59.845Z,54.20
2022-11-29T18:10:29.896Z,53.60
2022-11-29T18:12:59.259Z,50.95
2022-11-29T18:15:28.552Z,48.73
2022-11-29T18:17:57.939Z,53.30
2022-11-29T18:20:27.307Z,50.05
2022-11-29T18:22:56.649Z,54.93
2022-11-29T18:25:41.130Z,56.20
2022-11-29T18:27:57.167Z,65.22
2022-11-29T18:30:26.573Z,56.25
2022-11-29T18:32:57.550Z,66.92
2022-11-29T18:35:27.963Z,59.18
2022-11-29T18:38:14.696Z,52.98
2022-11-29T18:40:28.303Z,51.80
2022-11-29T18:42:57.685Z,58.83
2022-11-29T18:45:26.920Z,44.08
2022-11-29T18:47:56.509Z,55.15
2022-11-29T18:50:25.726Z,56.23
2022-11-29T18:52:56.003Z,50.48
2022-11-29T18:55:25.870Z,51.50
2022-11-29T18:57:55.878Z,50.85
2022-11-29T19:00:25.155Z,52.60
2022-11-29T19:02:55.047Z,49.80
2022-11-29T19:05:24.375Z,74.32
2022-11-29T19:07:53.952Z,50.70
2022-11-29T19:10:23.251Z,58.45
2022-11-29T19:12:52.762Z,57.20
2022-11-29T19:15:21.996Z,48.10
2022-11-29T19:17:51.545Z,54.13
2022-11-29T19:20:20.759Z,51.92
2022-11-29T19:22:50.173Z,47.20
2022-11-29T19:25:19.378Z,47.23
2022-11-29T19:27:49.142Z,49.23
2022-11-29T19:30:18.645Z,47.48
2022-11-29T19:32:48.041Z,48.15
2022-11-29T19:35:17.638Z,50.83
2022-11-29T19:37:47.066Z,49.75
2022-11-29T19:40:16.576Z,47.67
2022-11-29T19:42:50.254Z,47.25
2022-11-29T19:45:19.619Z,47.67
2022-11-29T19:47:49.513Z,53.02
2022-11-29T19:50:18.908Z,47.03
2022-11-29T19:52:48.495Z,61.63
2022-11-29T19:55:17.863Z,55.20
2022-11-29T19:57:47.182Z,48.20
2022-11-29T20:00:17.258Z,51.75
2022-11-29T20:02:46.696Z,46.23
2022-11-29T20:05:16.196Z,45.03
2022-11-29T20:07:45.525Z,47.38
2022-11-29T20:10:14.992Z,42.90
2022-11-29T20:12:44.626Z,45.10
2022-11-29T20:15:13.943Z,45.78
2022-11-29T20:17:43.221Z,46.53
2022-11-29T20:20:13.271Z,51.90
2022-11-29T20:22:42.526Z,48.83
2022-11-29T20:25:13.267Z,52.00
2022-11-29T20:27:42.552Z,45.98
2022-11-29T20:30:12.819Z,44.38
2022-11-29T20:32:42.207Z,43.17
2022-11-29T20:35:12.329Z,40.60
2022-11-29T20:38:10.445Z,39.65
2022-11-29T20:41:02.489Z,43.20
2022-11-29T20:43:46.189Z,40.88
2022-11-29T20:46:16.196Z,40.25
2022-11-29T20:48:45.749Z,51.42
2022-11-29T20:51:15.183Z,46.58
2022-11-29T20:53:46.579Z,45.98
2022-11-29T20:56:16.162Z,46.50
2022-11-29T20:58:45.649Z,40.92
2022-11-29T21:01:15.823Z,43.23
2022-11-29T21:03:45.474Z,41.18
2022-11-29T21:06:15.097Z,40.08
2022-11-29T21:08:44.314Z,40.88
2022-11-29T21:11:13.931Z,41.40
2022-11-29T21:13:43.582Z,50.88
2022-11-29T21:16:14.547Z,45.60
2022-11-29T21:18:44.158Z,45.78
2022-11-29T21:21:16.754Z,42.33
2022-11-29T21:26:21.730Z,42.80
2022-11-29T21:29:02.930Z,46.23
2022-11-29T21:31:32.551Z,47.15
2022-11-29T21:34:02.077Z,50.48
2022-11-29T21:36:31.414Z,49.00
2022-11-29T21:39:04.825Z,50.95
2022-11-29T21:41:31.576Z,50.03
2022-11-29T21:44:08.690Z,51.13
2022-11-29T21:46:32.152Z,49.13
2022-11-29T21:49:01.368Z,45.00
2022-11-29T21:51:30.818Z,48.08
2022-11-29T21:54:00.043Z,47.30
2022-11-29T21:56:29.573Z,48.40
2022-11-29T21:58:58.804Z,51.02
2022-11-29T22:01:29.592Z,49.13
2022-11-29T22:03:59.017Z,50.60
2022-11-29T22:06:29.503Z,50.58
2022-11-29T22:08:59.829Z,54.85
2022-11-29T22:11:34.393Z,52.35
2022-11-29T22:14:15.391Z,58.20
2022-11-29T22:16:54.263Z,55.45
2022-11-29T22:19:28.753Z,50.85
2022-11-29T22:22:00.288Z,52.03
2022-11-29T22:24:31.840Z,51.30
2022-11-29T22:27:01.833Z,51.98
2022-11-29T22:29:31.104Z,50.35
2022-11-29T22:32:01.353Z,52.08
2022-11-29T22:34:30.650Z,49.88
2022-11-29T22:37:00.056Z,50.98
2022-11-29T22:39:32.121Z,50.40
2022-11-29T22:42:01.620Z,46.92
2022-11-29T22:44:31.321Z,48.50
2022-11-29T22:47:00.659Z,46.65
2022-11-29T22:49:30.137Z,47.85
2022-11-29T22:51:59.385Z,44.83
2022-11-29T22:54:28.607Z,46.65
2022-11-29T22:56:58.023Z,45.90
2022-11-29T22:59:27.245Z,45.25
2022-11-29T23:01:56.684Z,45.65
2022-11-29T23:04:25.938Z,45.12
2022-11-29T23:06:55.242Z,45.95
2022-11-29T23:09:24.457Z,45.17
2022-11-29T23:11:56.444Z,43.38
2022-11-29T23:14:26.384Z,43.10
2022-11-29T23:16:55.893Z,43.13
2022-11-29T23:19:25.107Z,43.23
2022-11-29T23:21:55.989Z,40.70
2022-11-29T23:24:25.446Z,41.42
2022-11-29T23:26:54.677Z,40.35
2022-11-29T23:29:24.137Z,40.88
2022-11-29T23:31:53.438Z,38.80
2022-11-29T23:34:22.824Z,38.60
2022-11-29T23:36:53.272Z,37.55
2022-11-29T23:39:22.949Z,38.45
2022-11-29T23:41:52.195Z,39.67
2022-11-29T23:44:21.786Z,39.25
2022-11-29T23:46:51.005Z,39.65
2022-11-29T23:49:20.390Z,40.15
2022-11-29T23:51:49.619Z,40.40
2022-11-29T23:54:18.835Z,38.53
2022-11-29T23:56:48.058Z,38.65
2022-11-29T23:59:17.387Z,38.98
